createdAt,value
2022-10-07T00:01:57.213Z,2.00
2022-10-07T00:07:17.357Z,1.90
2022-10-07T00:12:37.534Z,1.97
2022-10-07T00:17:57.647Z,1.73
2022-10-07T00:23:17.752Z,1.40
2022-10-07T00:28:38.050Z,2.07
2022-10-07T00:33:58.333Z,1.90
2022-10-07T00:39:18.149Z,2.00
2022-10-07T00:44:38.465Z,2.13
2022-10-07T00:49:58.506Z,1.83
2022-10-07T00:55:18.742Z,1.70
2022-10-07T01:00:38.931Z,1.43
2022-10-07T01:05:59.129Z,1.60
2022-10-07T01:11:19.259Z,1.33
2022-10-07T01:16:39.477Z,1.57
2022-10-07T01:21:59.512Z,1.43
2022-10-07T01:27:19.587Z,1.80
2022-10-07T01:32:39.687Z,2.00
2022-10-07T01:37:59.845Z,2.67
2022-10-07T01:43:19.874Z,1.60
2022-10-07T01:48:39.966Z,1.67
2022-10-07T01:53:59.943Z,2.13
2022-10-07T01:59:20.006Z,1.57
2022-10-07T02:04:40.196Z,1.43
2022-10-07T02:10:00.308Z,1.57
2022-10-07T02:15:20.344Z,2.20
2022-10-07T02:20:40.513Z,1.60
2022-10-07T02:26:00.658Z,1.37
2022-10-07T02:31:21.042Z,2.10
2022-10-07T02:36:40.987Z,2.07
2022-10-07T02:42:01.241Z,1.10
2022-10-07T02:47:21.348Z,1.60
2022-10-07T02:52:41.539Z,1.43
2022-10-07T02:58:01.697Z,1.30
2022-10-07T03:03:21.846Z,1.97
2022-10-07T03:08:41.914Z,1.37
2022-10-07T03:14:02.010Z,1.37
2022-10-07T03:19:22.074Z,1.50
2022-10-07T03:24:42.239Z,1.73
2022-10-07T03:30:02.540Z,1.57
2022-10-07T03:35:22.785Z,1.40
2022-10-07T03:40:43.058Z,2.17
2022-10-07T03:46:03.256Z,1.40
2022-10-07T03:51:23.332Z,1.20
2022-10-07T03:56:43.471Z,1.20
2022-10-07T04:02:03.589Z,2.60
2022-10-07T04:07:23.564Z,1.40
2022-10-07T04:12:43.815Z,2.13
2022-10-07T04:18:03.881Z,1.40
2022-10-07T04:23:23.918Z,1.93
2022-10-07T04:28:44.739Z,1.60
2022-10-07T04:34:04.530Z,1.80
2022-10-07T04:39:37.406Z,1.40
2022-10-07T04:45:04.304Z,1.80
2022-10-07T04:50:24.665Z,1.57
2022-10-07T04:55:44.708Z,1.20
2022-10-07T05:01:04.976Z,1.20
2022-10-07T05:06:24.951Z,1.03
2022-10-07T05:11:45.093Z,3.77
2022-10-07T05:17:05.300Z,1.90
2022-10-07T05:22:25.632Z,1.83
2022-10-07T05:27:45.854Z,2.00
2022-10-07T05:33:06.281Z,1.33
2022-10-07T05:38:26.505Z,1.90
2022-10-07T05:43:46.637Z,1.47
2022-10-07T05:49:06.748Z,1.70
2022-10-07T05:54:27.103Z,1.30
2022-10-07T05:59:47.184Z,1.50
2022-10-07T06:05:07.330Z,1.70
2022-10-07T06:10:27.374Z,1.33
2022-10-07T06:15:47.452Z,1.10
2022-10-07T06:21:07.644Z,1.40
2022-10-07T06:26:27.771Z,1.87
2022-10-07T06:31:47.983Z,1.93
2022-10-07T06:37:08.086Z,1.30
2022-10-07T06:42:28.269Z,1.63
2022-10-07T06:47:48.538Z,1.20
2022-10-07T06:53:08.888Z,1.47
2022-10-07T06:58:29.040Z,1.10
2022-10-07T07:03:49.205Z,1.30
2022-10-07T07:09:09.324Z,1.10
2022-10-07T07:14:29.319Z,1.67
2022-10-07T07:19:49.446Z,1.07
2022-10-07T07:25:09.536Z,1.60
2022-10-07T07:30:29.687Z,1.00
2022-10-07T07:35:49.772Z,1.27
2022-10-07T07:41:09.842Z,1.23
2022-10-07T07:46:29.937Z,1.20
2022-10-07T07:51:49.976Z,1.00
2022-10-07T07:57:10.116Z,1.30
2022-10-07T08:02:30.267Z,1.27
2022-10-07T08:07:50.378Z,0.87
2022-10-07T08:13:10.510Z,1.20
2022-10-07T08:18:30.718Z,1.60
2022-10-07T08:23:50.830Z,1.70
2022-10-07T08:29:11.014Z,1.43
2022-10-07T08:34:31.136Z,1.20
2022-10-07T08:39:51.300Z,1.77
2022-10-07T08:45:11.504Z,1.20
2022-10-07T08:50:31.704Z,1.30
2022-10-07T08:55:51.812Z,1.17
2022-10-07T09:01:12.045Z,1.30
2022-10-07T09:06:31.979Z,1.50
2022-10-07T09:11:52.177Z,1.23
2022-10-07T09:17:12.224Z,0.97
2022-10-07T09:22:32.462Z,1.10
2022-10-07T09:27:52.646Z,0.80
2022-10-07T09:33:12.827Z,2.23
2022-10-07T09:38:33.021Z,1.20
2022-10-07T09:43:53.275Z,1.53
2022-10-07T09:49:13.462Z,3.10
2022-10-07T09:54:33.683Z,1.33
2022-10-07T09:59:53.828Z,1.40
2022-10-07T10:05:13.961Z,4.30
2022-10-07T10:10:34.023Z,1.30
2022-10-07T10:15:54.305Z,4.63
2022-10-07T10:21:14.392Z,1.90
2022-10-07T10:26:34.600Z,1.33
2022-10-07T10:31:54.773Z,1.73
2022-10-07T10:37:15.120Z,2.13
2022-10-07T10:42:35.259Z,1.77
2022-10-07T10:47:55.649Z,1.30
2022-10-07T10:53:15.884Z,2.37
2022-10-07T10:58:36.160Z,2.10
2022-10-07T11:03:56.420Z,1.60
2022-10-07T11:09:16.597Z,2.00
2022-10-07T11:14:36.744Z,2.23
2022-10-07T11:19:56.816Z,4.80
2022-10-07T11:25:16.940Z,3.40
2022-10-07T11:30:37.211Z,2.00
2022-10-07T11:35:57.451Z,4.00
2022-10-07T11:41:17.529Z,1.40
2022-10-07T11:46:37.690Z,1.77
2022-10-07T11:51:57.777Z,1.97
2022-10-07T11:57:17.923Z,2.03
2022-10-07T12:02:38.280Z,6.63
2022-10-07T12:07:58.231Z,4.23
2022-10-07T12:13:18.335Z,2.63
2022-10-07T12:18:38.460Z,5.13
2022-10-07T12:23:58.542Z,4.33
2022-10-07T12:29:18.836Z,6.50
2022-10-07T12:34:38.900Z,3.97
2022-10-07T12:39:58.879Z,3.20
2022-10-07T12:45:18.967Z,2.60
2022-10-07T12:50:39.100Z,4.00
2022-10-07T12:55:59.243Z,4.40
2022-10-07T13:01:19.659Z,2.60
2022-10-07T13:06:39.640Z,9.50
2022-10-07T13:11:59.791Z,4.93
2022-10-07T13:17:20.058Z,3.23
2022-10-07T13:22:40.228Z,6.20
2022-10-07T13:28:00.341Z,4.40
2022-10-07T13:33:20.410Z,5.83
2022-10-07T13:38:40.566Z,3.73
2022-10-07T13:44:00.934Z,4.47
2022-10-07T13:49:21.038Z,6.13
2022-10-07T13:54:41.242Z,5.50
2022-10-07T14:00:01.554Z,3.57
2022-10-07T14:05:21.589Z,7.20
2022-10-07T14:10:41.821Z,3.83
2022-10-07T14:16:01.993Z,4.40
2022-10-07T14:21:22.373Z,3.03
2022-10-07T14:26:42.485Z,2.70
2022-10-07T14:32:02.583Z,4.30
2022-10-07T14:37:22.822Z,6.90
2022-10-07T14:42:43.057Z,5.63
2022-10-07T14:48:03.075Z,7.73
2022-10-07T14:53:23.313Z,4.47
2022-10-07T14:58:43.601Z,4.40
2022-10-07T15:04:03.741Z,6.20
2022-10-07T15:09:23.789Z,2.73
2022-10-07T15:14:43.735Z,3.20
2022-10-07T15:20:03.917Z,4.40
2022-10-07T15:25:23.961Z,4.30
2022-10-07T15:30:44.354Z,5.73
2022-10-07T15:36:04.540Z,3.60
2022-10-07T15:41:24.595Z,8.00
2022-10-07T15:46:44.713Z,5.67
2022-10-07T15:52:04.868Z,5.40
2022-10-07T15:57:26.140Z,7.50
2022-10-07T16:02:46.710Z,8.43
2022-10-07T16:08:07.034Z,6.40
2022-10-07T16:13:27.232Z,7.87
2022-10-07T16:18:47.376Z,6.70
2022-10-07T16:24:07.659Z,7.70
2022-10-07T16:29:27.688Z,8.83
2022-10-07T16:34:47.812Z,5.87
2022-10-07T16:40:07.965Z,6.43
2022-10-07T16:45:28.127Z,6.70
2022-10-07T16:50:48.127Z,9.40
2022-10-07T16:56:08.341Z,4.03
2022-10-07T17:01:28.617Z,7.90
2022-10-07T17:06:48.784Z,6.70
2022-10-07T17:12:08.883Z,5.20
2022-10-07T17:17:29.090Z,7.97
2022-10-07T17:22:49.119Z,9.17
2022-10-07T17:28:09.264Z,8.20
2022-10-07T17:33:29.267Z,7.30
2022-10-07T17:38:49.534Z,5.30
2022-10-07T17:44:09.732Z,7.03
2022-10-07T17:49:29.952Z,5.60
2022-10-07T17:54:50.095Z,5.23
2022-10-07T18:00:10.203Z,7.60
2022-10-07T18:05:30.292Z,7.23
2022-10-07T18:10:50.369Z,6.23
2022-10-07T18:16:10.506Z,6.17
2022-10-07T18:21:30.631Z,6.03
2022-10-07T18:26:50.657Z,6.63
2022-10-07T18:32:10.735Z,8.20
2022-10-07T18:37:30.840Z,5.00
2022-10-07T18:42:50.972Z,5.83
2022-10-07T18:48:11.074Z,5.37
2022-10-07T18:53:31.134Z,5.20
2022-10-07T18:58:51.779Z,5.47
2022-10-07T19:04:12.136Z,5.43
2022-10-07T19:09:32.201Z,5.30
2022-10-07T19:14:52.329Z,4.90
2022-10-07T19:20:12.350Z,5.80
2022-10-07T19:25:32.451Z,4.53
2022-10-07T19:30:52.606Z,12.43
2022-10-07T19:36:12.764Z,5.00
2022-10-07T19:41:32.980Z,6.93
2022-10-07T19:46:53.151Z,7.47
2022-10-07T19:52:13.348Z,7.23
2022-10-07T19:57:34.192Z,8.10
2022-10-07T20:02:54.689Z,5.27
2022-10-07T20:08:15.166Z,9.20
2022-10-07T20:13:35.331Z,6.17
2022-10-07T20:18:55.394Z,6.67
2022-10-07T20:24:15.617Z,6.50
2022-10-07T20:29:35.674Z,5.37
2022-10-07T20:34:55.898Z,7.07
2022-10-07T20:40:15.942Z,6.50
2022-10-07T20:45:36.283Z,6.43
2022-10-07T20:50:56.300Z,6.13
2022-10-07T20:56:16.488Z,7.67
2022-10-07T21:01:36.600Z,6.40
2022-10-07T21:06:56.904Z,8.40
2022-10-07T21:12:17.018Z,7.23
2022-10-07T21:17:37.227Z,6.83
2022-10-07T21:22:57.373Z,7.33
2022-10-07T21:28:17.655Z,7.43
2022-10-07T21:33:37.708Z,8.73
2022-10-07T21:38:57.812Z,4.20
2022-10-07T21:44:17.880Z,4.23
2022-10-07T21:49:38.176Z,6.40
2022-10-07T21:54:58.348Z,4.30
2022-10-07T22:00:18.574Z,6.93
2022-10-07T22:05:38.601Z,5.20
2022-10-07T22:10:58.869Z,4.23
2022-10-07T22:16:18.989Z,6.47
2022-10-07T22:21:39.286Z,7.00
2022-10-07T22:26:59.356Z,4.60
2022-10-07T22:32:19.608Z,9.13
2022-10-07T22:37:39.676Z,5.30
2022-10-07T22:42:59.838Z,6.97
2022-10-07T22:48:19.909Z,5.57
2022-10-07T22:53:39.980Z,4.90
2022-10-07T22:59:00.152Z,5.30
2022-10-07T23:04:20.349Z,6.30
2022-10-07T23:09:40.438Z,5.70
2022-10-07T23:15:00.586Z,4.80
2022-10-07T23:20:20.725Z,5.20
2022-10-07T23:25:41.014Z,7.23
2022-10-07T23:31:01.160Z,4.67
2022-10-07T23:36:21.305Z,4.10
2022-10-07T23:41:41.401Z,4.23
2022-10-07T23:47:01.483Z,5.80
2022-10-07T23:52:21.574Z,4.93
2022-10-07T23:57:41.652Z,7.07
